CheckWX is a tool to help pilots better visualize weather data.  It is not intended as a substitute for an official pre-flight weather briefing.

21:19:54 UTC

SARE TAF
Resistencia International Airport
Resistencia, Argentina
TAF SARE 171700Z 1718/1818 36010KT 7000 NSC TX20/1818Z TN12/1810Z BECMG 1723/1801 18010KT 9999 BKN020 PROB30 1808/1812 2000 BR

Aug-17@
18:00 UTC

Aug-17 @ 18:00 UTC

Aug-17@
23:00 UTC

Aug-17 @ 23:00 UTC

TAF SARE 171700Z 1718/1818 36010KT 7000 NSC TX20/1818Z TN12/1810Z
Wind
  • 360° at 10 KTS
Cloud Levels
  • No significant clouds

Aug-17@
23:00 UTC

Aug-17 @ 23:00 UTC

Aug-18@
18:00 UTC

Aug-18 @ 18:00 UTC

BECMG 1723/1801 18010KT 9999 BKN020

Becoming

Becoming Conditions expected by Sun, Aug 18, 2019 @ 01:00 UTC

Wind
  • 180° at 10 KTS
Cloud Levels
  • Broken at 2,000' AGL

Aug-18@
08:00 UTC

Aug-18 @ 08:00 UTC

Aug-18@
12:00 UTC

Aug-18 @ 12:00 UTC

PROB30 1808/1812 2000 BR

Probable - 30% Likelihood

Probable - 30% Likelihood during this time.

Conditions
Mist